createdAt,value
2018-04-19T00:00:21.471Z,16.70
2018-04-19T00:02:51.704Z,16.60
2018-04-19T00:05:22.146Z,16.50
2018-04-19T00:07:53.494Z,16.40
2018-04-19T00:10:24.950Z,16.40
2018-04-19T00:12:55.821Z,16.30
2018-04-19T00:15:26.436Z,16.30
2018-04-19T00:17:56.591Z,16.30
2018-04-19T00:20:27.867Z,16.20
2018-04-19T00:22:58.991Z,16.00
2018-04-19T00:25:29.861Z,16.00
2018-04-19T00:28:01.142Z,15.90
2018-04-19T00:30:31.644Z,15.90
2018-04-19T00:33:02.304Z,15.90
2018-04-19T00:35:32.536Z,15.90
2018-04-19T00:38:03.466Z,15.80
2018-04-19T00:40:34.787Z,15.80
2018-04-19T00:43:05.006Z,15.80
2018-04-19T00:45:36.265Z,15.80
2018-04-19T00:48:08.011Z,15.80
2018-04-19T00:50:38.450Z,15.80
2018-04-19T00:53:11.034Z,15.80
2018-04-19T00:55:41.595Z,15.70
2018-04-19T00:58:12.301Z,15.70
2018-04-19T01:00:42.908Z,15.70
2018-04-19T01:03:13.255Z,15.70
2018-04-19T01:05:43.344Z,15.70
2018-04-19T01:08:14.300Z,15.70
2018-04-19T01:10:45.038Z,15.70
2018-04-19T01:13:16.213Z,15.70
2018-04-19T01:15:47.586Z,15.60
2018-04-19T01:18:18.633Z,15.50
2018-04-19T01:20:49.936Z,15.60
2018-04-19T01:23:20.687Z,15.50
2018-04-19T01:25:52.132Z,15.50
2018-04-19T01:28:22.374Z,15.50
2018-04-19T01:30:52.810Z,15.50
2018-04-19T01:33:23.583Z,15.40
2018-04-19T01:36:03.772Z,15.40
2018-04-19T01:38:34.096Z,15.30
2018-04-19T01:41:04.863Z,15.30
2018-04-19T01:43:36.263Z,15.30
2018-04-19T01:46:07.094Z,15.30
2018-04-19T01:48:37.878Z,15.30
2018-04-19T01:51:08.245Z,15.20
2018-04-19T01:53:39.130Z,15.20
2018-04-19T01:56:10.068Z,15.20
2018-04-19T01:58:41.682Z,15.20
2018-04-19T02:01:11.980Z,15.10
2018-04-19T02:03:42.851Z,15.20
2018-04-19T02:06:13.433Z,15.10
2018-04-19T02:08:44.805Z,15.10
2018-04-19T02:11:15.632Z,15.10
2018-04-19T02:13:46.194Z,15.10
2018-04-19T02:16:17.300Z,15.10
2018-04-19T02:18:47.539Z,15.00
2018-04-19T02:21:17.962Z,15.00
2018-04-19T02:23:48.598Z,15.00
2018-04-19T02:26:20.104Z,15.00
2018-04-19T02:28:51.600Z,15.20
2018-04-19T02:31:24.405Z,15.20
2018-04-19T02:33:55.128Z,15.20
2018-04-19T02:36:25.825Z,15.20
2018-04-19T02:38:57.135Z,15.30
2018-04-19T02:41:27.467Z,15.30
2018-04-19T02:43:57.783Z,15.40
2018-04-19T02:46:27.957Z,15.50
2018-04-19T02:48:58.315Z,15.50
2018-04-19T02:51:28.658Z,15.40
2018-04-19T02:53:59.600Z,15.40
2018-04-19T02:56:30.303Z,15.40
2018-04-19T02:59:00.856Z,15.40
2018-04-19T03:01:30.884Z,15.40
2018-04-19T03:04:01.396Z,15.50
2018-04-19T03:06:32.069Z,15.40
2018-04-19T03:09:02.461Z,15.40
2018-04-19T03:11:33.112Z,15.40
2018-04-19T03:14:04.424Z,15.30
2018-04-19T03:16:35.004Z,15.30
2018-04-19T03:19:06.032Z,15.30
2018-04-19T03:21:37.400Z,15.20
2018-04-19T03:24:07.976Z,15.20
2018-04-19T03:26:38.290Z,15.20
2018-04-19T03:29:09.514Z,15.10
2018-04-19T03:31:41.286Z,15.10
2018-04-19T03:34:12.016Z,15.10
2018-04-19T03:36:42.169Z,15.10
2018-04-19T03:39:12.869Z,15.10
2018-04-19T03:41:43.032Z,15.20
2018-04-19T03:44:13.795Z,15.20
2018-04-19T03:46:44.178Z,15.10
2018-04-19T03:49:14.751Z,15.20
2018-04-19T03:51:45.841Z,15.20
2018-04-19T03:54:16.359Z,15.20
2018-04-19T03:56:47.867Z,15.20
2018-04-19T03:59:18.748Z,15.20
2018-04-19T04:01:50.208Z,15.20
2018-04-19T04:04:21.451Z,15.30
2018-04-19T04:06:52.050Z,15.20
2018-04-19T04:09:23.719Z,15.30
2018-04-19T04:11:53.933Z,15.20
2018-04-19T04:14:24.346Z,15.20
2018-04-19T04:17:04.597Z,15.20
2018-04-19T04:19:44.667Z,15.20
2018-04-19T04:22:24.788Z,15.20
2018-04-19T04:24:55.350Z,15.20
2018-04-19T04:27:25.607Z,15.20
2018-04-19T04:29:55.804Z,15.20
2018-04-19T04:32:26.610Z,15.30
2018-04-19T04:34:57.116Z,15.20
2018-04-19T04:37:27.512Z,15.20
2018-04-19T04:39:57.654Z,15.30
2018-04-19T04:42:28.177Z,15.30
2018-04-19T04:44:58.940Z,15.30
2018-04-19T04:47:30.241Z,15.30
2018-04-19T04:50:00.421Z,15.30
2018-04-19T04:52:30.901Z,15.30
2018-04-19T04:55:01.722Z,15.40
2018-04-19T04:57:31.967Z,15.50
2018-04-19T05:00:02.796Z,15.50
2018-04-19T05:02:33.150Z,15.60
2018-04-19T05:05:04.843Z,15.70
2018-04-19T05:07:35.328Z,15.70
2018-04-19T05:10:05.989Z,15.80
2018-04-19T05:12:36.648Z,15.80
2018-04-19T05:15:07.073Z,15.90
2018-04-19T05:17:37.764Z,15.90
2018-04-19T05:20:08.538Z,16.00
2018-04-19T05:22:38.920Z,16.00
2018-04-19T05:25:09.925Z,16.10
2018-04-19T05:27:40.323Z,16.10
2018-04-19T05:30:10.778Z,16.10
2018-04-19T05:32:40.838Z,16.20
2018-04-19T05:35:12.405Z,16.20
2018-04-19T05:37:43.497Z,16.20
2018-04-19T05:40:18.292Z,16.30
2018-04-19T05:42:48.825Z,16.30
2018-04-19T05:45:20.449Z,16.50
2018-04-19T05:47:52.005Z,16.50
2018-04-19T05:50:23.420Z,16.60
2018-04-19T05:52:53.952Z,16.60
2018-04-19T05:55:24.295Z,16.70
2018-04-19T05:57:55.755Z,16.90
2018-04-19T06:00:29.074Z,17.10
2018-04-19T06:02:59.305Z,17.00
2018-04-19T06:05:29.700Z,17.30
2018-04-19T06:08:01.125Z,17.60
2018-04-19T06:10:32.982Z,17.90
2018-04-19T06:13:05.149Z,17.90
2018-04-19T06:15:35.555Z,18.50
2018-04-19T06:18:05.831Z,19.20
2018-04-19T06:20:41.528Z,19.60
2018-04-19T06:23:14.369Z,19.80
2018-04-19T06:25:46.536Z,20.00
2018-04-19T06:28:17.102Z,20.00
2018-04-19T06:30:47.748Z,20.30
2018-04-19T06:33:18.247Z,20.80
2018-04-19T06:35:48.676Z,21.10
2018-04-19T06:38:19.051Z,20.80
2018-04-19T06:40:50.004Z,21.00
2018-04-19T06:43:21.372Z,21.90
2018-04-19T06:45:52.043Z,21.90
2018-04-19T06:48:23.140Z,22.10
2018-04-19T06:50:53.741Z,22.10
2018-04-19T06:53:24.834Z,21.50
2018-04-19T06:55:55.526Z,21.40
2018-04-19T06:58:26.472Z,22.10
2018-04-19T07:00:58.031Z,21.40
2018-04-19T07:03:28.417Z,21.40
2018-04-19T07:05:59.157Z,21.00
2018-04-19T07:08:29.740Z,21.10
2018-04-19T07:10:59.692Z,21.50
2018-04-19T07:13:33.147Z,21.90
2018-04-19T07:16:03.441Z,21.40
2018-04-19T07:18:34.165Z,21.60
2018-04-19T07:21:05.046Z,22.00
2018-04-19T07:23:38.973Z,22.30
2018-04-19T07:26:09.591Z,22.70
2018-04-19T07:28:40.661Z,22.70
2018-04-19T07:31:12.032Z,22.50
2018-04-19T07:33:43.662Z,23.70
2018-04-19T07:36:14.814Z,23.70
2018-04-19T07:38:45.504Z,22.60
2018-04-19T07:41:16.322Z,23.00
2018-04-19T07:43:46.502Z,23.10
2018-04-19T07:46:16.888Z,22.50
2018-04-19T07:48:47.614Z,22.80
2018-04-19T07:51:18.271Z,23.50
2018-04-19T07:53:48.811Z,24.50
2018-04-19T07:56:20.321Z,23.60
2018-04-19T07:58:51.854Z,23.30
2018-04-19T08:01:23.825Z,22.90
2018-04-19T08:03:55.105Z,23.60
2018-04-19T08:06:26.774Z,23.50
2018-04-19T08:08:57.125Z,23.40
2018-04-19T08:11:27.925Z,23.10
2018-04-19T08:13:59.134Z,23.20
2018-04-19T08:16:30.645Z,23.60
2018-04-19T08:19:01.472Z,23.50
2018-04-19T08:21:31.837Z,24.00
2018-04-19T08:24:02.754Z,24.80
2018-04-19T08:26:33.533Z,25.00
2018-04-19T08:29:03.787Z,25.00
2018-04-19T08:31:34.503Z,25.70
2018-04-19T08:34:05.036Z,26.10
2018-04-19T08:36:35.685Z,26.10
2018-04-19T08:39:07.275Z,25.80
2018-04-19T08:41:46.060Z,25.00
2018-04-19T08:44:18.275Z,25.00
2018-04-19T08:46:49.794Z,25.60
2018-04-19T08:49:20.395Z,25.60
2018-04-19T08:51:51.151Z,26.40
2018-04-19T08:54:21.801Z,25.90
2018-04-19T08:56:52.167Z,26.20
2018-04-19T08:59:24.308Z,26.80
2018-04-19T09:01:54.843Z,26.80
2018-04-19T09:04:25.688Z,26.40
2018-04-19T09:06:56.513Z,25.90
2018-04-19T09:09:27.682Z,27.60
2018-04-19T09:12:00.914Z,28.50
2018-04-19T09:14:31.430Z,28.50
2018-04-19T09:17:02.261Z,29.70
2018-04-19T09:19:33.207Z,29.80
2018-04-19T09:22:04.440Z,28.00
2018-04-19T09:24:38.088Z,28.00
2018-04-19T09:27:09.584Z,27.50
2018-04-19T09:29:51.919Z,27.00
2018-04-19T09:32:22.476Z,27.70
2018-04-19T09:34:53.187Z,28.20
2018-04-19T09:37:23.861Z,28.70
2018-04-19T09:39:55.694Z,29.50
2018-04-19T09:42:26.242Z,29.40
2018-04-19T09:44:57.157Z,29.00
2018-04-19T09:47:27.512Z,27.10
2018-04-19T09:49:59.091Z,28.30
2018-04-19T09:52:29.717Z,28.30
2018-04-19T09:55:00.920Z,29.30
2018-04-19T09:57:31.793Z,29.90
2018-04-19T10:00:06.695Z,30.60
2018-04-19T10:02:38.068Z,30.00
2018-04-19T10:05:10.170Z,30.00
2018-04-19T10:07:41.121Z,28.90
2018-04-19T10:10:12.635Z,29.40
2018-04-19T10:12:51.953Z,29.50
2018-04-19T10:15:23.051Z,29.70
2018-04-19T10:20:31.691Z,29.80
2018-04-19T10:23:04.068Z,29.90
2018-04-19T10:25:36.136Z,30.00
2018-04-19T10:28:08.033Z,30.00
2018-04-19T10:30:40.630Z,29.90
2018-04-19T10:33:12.003Z,29.90
2018-04-19T10:35:44.279Z,29.30
2018-04-19T10:38:16.830Z,29.30
2018-04-19T10:40:48.469Z,28.60
2018-04-19T10:43:22.049Z,28.90
2018-04-19T10:45:55.320Z,28.50
2018-04-19T10:48:26.977Z,28.50
2018-04-19T10:50:59.985Z,29.30
2018-04-19T10:53:32.701Z,29.90
2018-04-19T10:56:04.508Z,29.90
2018-04-19T10:58:35.101Z,30.40
2018-04-19T11:01:06.572Z,28.50
2018-04-19T11:03:37.573Z,28.90
2018-04-19T11:06:08.489Z,29.40
2018-04-19T11:08:39.952Z,29.80
2018-04-19T11:11:11.379Z,29.70
2018-04-19T11:13:43.062Z,29.20
2018-04-19T11:16:16.076Z,29.30
2018-04-19T11:18:50.858Z,29.50
2018-04-19T11:21:24.431Z,30.00
2018-04-19T11:23:57.335Z,30.00
2018-04-19T11:26:29.662Z,29.40
2018-04-19T11:29:01.630Z,28.60
2018-04-19T11:31:36.482Z,29.40
2018-04-19T11:34:08.553Z,30.20
2018-04-19T11:36:43.496Z,30.40
2018-04-19T11:39:18.159Z,30.40
2018-04-19T11:41:48.804Z,29.50
2018-04-19T11:44:19.280Z,29.30
2018-04-19T11:46:55.698Z,29.10
2018-04-19T11:49:28.099Z,28.60
2018-04-19T11:52:06.272Z,28.50
2018-04-19T11:54:36.109Z,28.30
2018-04-19T11:57:12.503Z,28.70
2018-04-19T11:59:47.718Z,28.50
2018-04-19T12:02:18.543Z,29.20
2018-04-19T12:04:57.943Z,30.40
2018-04-19T12:10:18.995Z,30.10
2018-04-19T12:12:53.382Z,30.60
2018-04-19T12:15:24.788Z,30.40
2018-04-19T12:17:58.223Z,30.80
2018-04-19T12:20:29.572Z,30.10
2018-04-19T12:23:04.173Z,30.50
2018-04-19T12:25:34.859Z,30.50
2018-04-19T12:30:48.351Z,29.80
2018-04-19T12:33:18.582Z,29.20
2018-04-19T12:35:49.445Z,29.60
2018-04-19T12:38:20.380Z,29.30
2018-04-19T12:40:53.746Z,30.40
2018-04-19T12:43:25.366Z,31.30
2018-04-19T12:45:55.907Z,31.20
2018-04-19T12:48:26.715Z,31.00
2018-04-19T12:50:58.118Z,31.50
2018-04-19T12:53:28.889Z,31.40
2018-04-19T12:56:02.807Z,30.00
2018-04-19T12:58:33.412Z,29.50
2018-04-19T13:01:07.002Z,30.40
2018-04-19T13:03:39.250Z,30.50
2018-04-19T13:06:10.380Z,30.50
2018-04-19T13:08:40.740Z,30.90
2018-04-19T13:11:13.650Z,31.20
2018-04-19T13:13:45.217Z,32.00
2018-04-19T13:16:23.412Z,32.00
2018-04-19T13:18:55.601Z,31.20
2018-04-19T13:21:34.989Z,31.20
2018-04-19T13:24:07.332Z,30.40
2018-04-19T13:26:37.395Z,30.40
2018-04-19T13:29:10.886Z,29.20
2018-04-19T13:31:42.660Z,29.20
2018-04-19T13:34:13.354Z,30.00
2018-04-19T13:36:44.853Z,30.60
2018-04-19T13:39:15.743Z,30.50
2018-04-19T13:41:50.316Z,30.30
2018-04-19T13:44:21.769Z,29.70
2018-04-19T13:49:29.977Z,29.80
2018-04-19T13:52:01.982Z,30.50
2018-04-19T13:54:33.506Z,31.00
2018-04-19T13:57:09.237Z,30.80
2018-04-19T13:59:45.185Z,30.60
2018-04-19T14:02:16.493Z,30.60
2018-04-19T14:04:47.749Z,31.00
2018-04-19T14:07:19.917Z,30.40
2018-04-19T14:09:52.245Z,29.90
2018-04-19T14:12:22.875Z,29.90
2018-04-19T14:14:54.434Z,30.40
2018-04-19T14:17:43.034Z,30.00
2018-04-19T14:20:14.072Z,30.10
2018-04-19T14:25:23.849Z,30.50
2018-04-19T14:27:56.133Z,29.80
2018-04-19T14:30:27.605Z,29.30
2018-04-19T14:32:58.979Z,29.40
2018-04-19T14:35:30.390Z,29.50
2018-04-19T14:38:03.767Z,30.30
2018-04-19T14:40:54.001Z,30.00
2018-04-19T14:43:26.226Z,30.00
2018-04-19T14:45:58.855Z,30.30
2018-04-19T14:48:36.326Z,29.60
2018-04-19T14:51:08.840Z,29.30
2018-04-19T14:53:38.632Z,29.30
2018-04-19T14:56:14.092Z,29.40
2018-04-19T14:58:45.021Z,29.10
2018-04-19T15:01:16.245Z,29.50
2018-04-19T15:03:48.388Z,29.50
2018-04-19T15:06:19.034Z,29.60
2018-04-19T15:08:51.012Z,29.40
2018-04-19T15:11:23.856Z,29.70
2018-04-19T15:13:55.146Z,29.70
2018-04-19T15:16:26.962Z,29.80
2018-04-19T15:18:58.119Z,29.60
2018-04-19T15:21:30.685Z,29.40
2018-04-19T15:24:03.365Z,29.30
2018-04-19T15:26:37.966Z,29.00
2018-04-19T15:29:26.149Z,28.90
2018-04-19T15:31:58.353Z,28.90
2018-04-19T15:34:31.221Z,28.80
2018-04-19T15:37:05.848Z,28.80
2018-04-19T15:39:52.307Z,28.70
2018-04-19T15:42:24.622Z,28.70
2018-04-19T15:44:56.263Z,28.60
2018-04-19T15:47:31.996Z,28.70
2018-04-19T15:50:03.782Z,28.80
2018-04-19T15:52:43.453Z,28.70
2018-04-19T15:55:15.270Z,28.80
2018-04-19T15:57:45.956Z,28.70
2018-04-19T16:00:18.732Z,28.90
2018-04-19T16:02:50.874Z,28.60
2018-04-19T16:08:07.776Z,28.60
2018-04-19T16:10:41.339Z,28.70
2018-04-19T16:13:13.172Z,28.80
2018-04-19T16:15:45.425Z,28.80
2018-04-19T16:18:18.279Z,28.60
2018-04-19T16:20:49.417Z,28.50
2018-04-19T16:23:21.753Z,28.40
2018-04-19T16:25:52.592Z,28.40
2018-04-19T16:28:23.735Z,28.40
2018-04-19T16:30:55.138Z,28.30
2018-04-19T16:36:00.634Z,28.50
2018-04-19T16:38:31.576Z,28.50
2018-04-19T16:41:02.670Z,28.50
2018-04-19T16:43:33.419Z,28.60
2018-04-19T16:46:04.584Z,28.50
2018-04-19T16:48:35.602Z,28.40
2018-04-19T16:51:06.101Z,28.30
2018-04-19T16:53:37.072Z,28.30
2018-04-19T16:56:07.933Z,28.40
2018-04-19T16:58:38.701Z,28.40
2018-04-19T17:01:09.437Z,28.40
2018-04-19T17:03:41.246Z,28.30
2018-04-19T17:06:11.862Z,28.20
2018-04-19T17:08:42.293Z,28.20
2018-04-19T17:11:12.465Z,28.20
2018-04-19T17:13:42.402Z,28.00
2018-04-19T17:16:15.432Z,28.00
2018-04-19T17:18:45.506Z,27.90
2018-04-19T17:21:16.827Z,27.80
2018-04-19T17:23:48.277Z,27.70
2018-04-19T17:26:18.624Z,27.70
2018-04-19T17:28:48.231Z,27.70
2018-04-19T17:31:20.049Z,27.60
2018-04-19T17:33:52.822Z,27.40
2018-04-19T17:36:22.638Z,27.40
2018-04-19T17:38:52.092Z,27.30
2018-04-19T17:41:22.233Z,27.20
2018-04-19T17:43:53.004Z,27.10
2018-04-19T17:46:22.992Z,27.00
2018-04-19T17:48:53.895Z,27.00
2018-04-19T17:51:24.448Z,26.90
2018-04-19T17:53:55.577Z,26.80
2018-04-19T17:56:27.094Z,26.70
2018-04-19T17:58:58.669Z,26.70
2018-04-19T18:01:28.542Z,26.60
2018-04-19T18:04:00.032Z,26.50
2018-04-19T18:06:29.882Z,26.40
2018-04-19T18:09:00.458Z,26.20
2018-04-19T18:11:31.389Z,26.20
2018-04-19T18:14:01.979Z,26.10
2018-04-19T18:16:32.819Z,25.90
2018-04-19T18:19:04.289Z,25.90
2018-04-19T18:21:34.183Z,25.90
2018-04-19T18:24:04.865Z,25.80
2018-04-19T18:26:35.114Z,25.70
2018-04-19T18:29:06.575Z,25.60
2018-04-19T18:31:37.295Z,25.40
2018-04-19T18:34:09.254Z,25.30
2018-04-19T18:36:39.958Z,25.30
2018-04-19T18:39:11.377Z,25.20
2018-04-19T18:41:41.887Z,25.20
2018-04-19T18:44:12.700Z,25.10
2018-04-19T18:46:43.578Z,25.10
2018-04-19T18:49:15.128Z,25.00
2018-04-19T18:51:44.802Z,24.90
2018-04-19T18:54:17.147Z,24.80
2018-04-19T18:56:48.565Z,24.70
2018-04-19T18:59:18.891Z,24.60
2018-04-19T19:01:49.957Z,24.60
2018-04-19T19:04:20.499Z,24.50
2018-04-19T19:06:50.455Z,24.40
2018-04-19T19:09:21.088Z,24.30
2018-04-19T19:11:52.070Z,24.10
2018-04-19T19:14:22.353Z,24.10
2018-04-19T19:16:53.102Z,24.10
2018-04-19T19:19:34.052Z,24.00
2018-04-19T19:22:07.516Z,23.80
2018-04-19T19:24:37.604Z,23.70
2018-04-19T19:27:09.982Z,23.60
2018-04-19T19:29:40.119Z,23.40
2018-04-19T19:32:11.685Z,23.30
2018-04-19T19:34:42.058Z,23.20
2018-04-19T19:37:12.872Z,23.10
2018-04-19T19:39:48.373Z,23.00
2018-04-19T19:42:19.864Z,23.00
2018-04-19T19:44:51.816Z,22.90
2018-04-19T19:47:22.381Z,22.90
2018-04-19T19:49:54.163Z,22.90
2018-04-19T19:52:24.567Z,22.80
2018-04-19T19:54:54.520Z,22.80
2018-04-19T19:57:24.400Z,22.70
2018-04-19T19:59:54.497Z,22.70
2018-04-19T20:02:25.254Z,22.50
2018-04-19T20:04:55.463Z,22.60
2018-04-19T20:07:25.281Z,22.50
2018-04-19T20:09:55.275Z,22.40
2018-04-19T20:12:25.963Z,22.20
2018-04-19T20:14:55.785Z,22.20
2018-04-19T20:17:27.611Z,22.10
2018-04-19T20:19:58.007Z,22.00
2018-04-19T20:22:31.892Z,21.90
2018-04-19T20:25:02.795Z,21.90
2018-04-19T20:27:33.133Z,21.80
2018-04-19T20:30:04.086Z,21.70
2018-04-19T20:32:34.108Z,21.70
2018-04-19T20:35:05.454Z,21.60
2018-04-19T20:37:38.545Z,21.50
2018-04-19T20:40:11.090Z,21.50
2018-04-19T20:42:41.114Z,21.40
2018-04-19T20:45:12.383Z,21.30
2018-04-19T20:47:42.442Z,21.20
2018-04-19T20:50:12.428Z,21.20
2018-04-19T20:52:42.867Z,21.10
2018-04-19T20:55:15.792Z,21.00
2018-04-19T20:57:45.252Z,21.00
2018-04-19T21:00:16.455Z,20.90
2018-04-19T21:02:46.956Z,20.90
2018-04-19T21:05:16.966Z,21.00
2018-04-19T21:07:47.225Z,21.00
2018-04-19T21:10:17.231Z,21.10
2018-04-19T21:12:50.663Z,21.10
2018-04-19T21:15:21.694Z,21.00
2018-04-19T21:17:52.036Z,21.00
2018-04-19T21:20:23.190Z,20.90
2018-04-19T21:22:54.406Z,20.70
2018-04-19T21:25:24.379Z,20.70
2018-04-19T21:27:54.778Z,20.70
2018-04-19T21:30:25.430Z,20.50
2018-04-19T21:32:55.683Z,20.50
2018-04-19T21:35:26.104Z,20.40
2018-04-19T21:37:57.228Z,20.40
2018-04-19T21:40:27.025Z,20.40
2018-04-19T21:42:57.485Z,20.40
2018-04-19T21:45:27.264Z,20.40
2018-04-19T21:47:57.157Z,20.30
2018-04-19T21:50:28.307Z,20.20
2018-04-19T21:52:59.031Z,20.10
2018-04-19T21:55:29.128Z,20.10
2018-04-19T21:57:59.504Z,20.00
2018-04-19T22:00:34.183Z,20.00
2018-04-19T22:03:07.066Z,19.90
2018-04-19T22:05:37.527Z,20.00
2018-04-19T22:08:08.496Z,20.00
2018-04-19T22:10:38.727Z,20.00
2018-04-19T22:13:11.084Z,20.00
2018-04-19T22:15:41.022Z,19.90
2018-04-19T22:18:10.813Z,19.90
2018-04-19T22:20:41.307Z,19.90
2018-04-19T22:23:12.368Z,19.80
2018-04-19T22:25:42.963Z,19.80
2018-04-19T22:28:15.783Z,19.80
2018-04-19T22:30:46.311Z,19.70
2018-04-19T22:33:16.407Z,19.60
2018-04-19T22:35:48.704Z,19.60
2018-04-19T22:38:19.008Z,19.60
2018-04-19T22:40:49.294Z,19.50
2018-04-19T22:43:19.426Z,19.50
2018-04-19T22:45:49.830Z,19.40
2018-04-19T22:48:20.580Z,19.40
2018-04-19T22:50:50.589Z,19.30
2018-04-19T22:53:22.588Z,19.30
2018-04-19T22:55:54.020Z,19.20
2018-04-19T22:58:23.912Z,19.20
2018-04-19T23:00:54.217Z,19.20
2018-04-19T23:03:26.473Z,19.10
2018-04-19T23:05:56.382Z,19.00
2018-04-19T23:08:26.367Z,19.00
2018-04-19T23:10:56.771Z,18.90
2018-04-19T23:13:27.140Z,18.90
2018-04-19T23:15:57.737Z,18.80
2018-04-19T23:18:27.512Z,18.80
2018-04-19T23:20:57.733Z,18.80
2018-04-19T23:23:27.703Z,18.80
2018-04-19T23:25:57.477Z,18.70
2018-04-19T23:28:27.261Z,18.60
2018-04-19T23:30:57.463Z,18.60
2018-04-19T23:33:29.481Z,18.50
2018-04-19T23:35:59.900Z,18.50
2018-04-19T23:38:30.157Z,18.50
2018-04-19T23:41:00.173Z,18.50
2018-04-19T23:43:31.348Z,18.40
2018-04-19T23:46:02.378Z,18.30
2018-04-19T23:48:32.082Z,18.40
2018-04-19T23:51:05.238Z,18.30
2018-04-19T23:53:34.890Z,18.30
2018-04-19T23:56:05.484Z,18.40
2018-04-19T23:58:35.367Z,18.30
